Hauptseite
METAR-TAF:

METAR-TAF

Flughäfen :

Heeresflugplatz Niederstetten

Niederstetten, Deutschland

Breite: 49-24N, Länge: 009-58E, Höhe: 468 m

Beobachtung

Neuester Wetterbericht von vor 29 Minuten, um 12:20 UTC
Wind 6 kt aus Nord
Temperatur 13°C
Luftfeuchtigkeit 47%
Luftdruck 1028 hPa
Sichtweite 10 km oder mehr
Aufgelockert bewölkt in der Höhe von 9000 ft

METAR: ETHN 221220Z 36006KT 9999 SCT090 13/02 Q1028 BLU+BLU+

Zeit: 14:49 (12:49 UTC)

Prognose

Neuester Wetterbericht von vor 2 Stunden und 49 Minuten, um 10:00 UTC
Gültige Prognose vom 22 um 11 UTC bis 22 um 20 UTC
Wind 3 kt aus Nord
Sichtweite 10 km oder mehr
Aufgelockert bewölkt in der Höhe von 23000 ft
Übergehend zu
vom 22 um 13 UTC bis 22 um 15 UTC
Wind 7 kt aus Nord
Sichtweite 10 km oder mehr
Durchbrochene Bewölkung in der Höhe von 3000 ft

TAF: ETHN 221000Z 2211/2220 36003KT 9999 NSW SCT230 BECMG 2213/2215 36007KT 9999 NSW BKN030

Wetterbeobachtungen und Prognosen von mehr als 4000 Flughäfen (METAR und TAF Bericht).

Die verfügbaren Stationen werden durch gelbe und rote Markierungen auf der Karte dargestellt.

Führen Sie die Maus auf sie, um den Namen der Station zu sehen.

Darauf klicken, um die Beobachtung von Wetterbeobachtungen und Prognosen zu sehen.

Um die Karte zu ändern : klicken Sie auf den grünen Tasten mit einem schwarzen Kreuz Zum Vergrößern, auf den grünen Button mit einem Gedankenstrich zu verkleinern, oder auf die grünen Pfeile für benachbarte Karten.


METAR-TAF: